Pangnirtung, Canada
Current Conditions -  °F | °C
As of 6:42 AM on Sunday 26 Oct 2014 (Local Time) from CYVM Reporting Station
Light Snow Light Snow  
Wind Chill:   Ceiling: 4400
Heat Index: 19°   Visibility: 9mi
Dew Point:   Wind: 8mph
Humidity: 63%   Direction: 190°S
Pressure: 30.12"   Gusts: NA
Location:  66.15°N, 65.69°W
Report Text: CYVM 260942Z AUTO 19007KT 9SM -SN OVC044 M07/M13 A3012 RMK SLP201
Loading
Personal Weather Stations






























Interactive Weather Map
Tropical Storm Tracking
New forecast layout! Learn more

10-Day Weather Forecast

Advertisements
Track Severe Weather on mobile